Hlavní strana
METAR-TAF:

METAR-TAF

Letiště :

Niamey, Niger

zeměpisná šířka: 13-29N, zeměpisná délka: 002-10E, výška: 223 m

Aktuální stav počasí

Zpráva byla vytvořena před 25 minutami, v 05:00 UTC
Jihovýchodní vítr 2 kt
Teplota 22°C
Vlhkost vzduchu 29%
Tlak 1012 hPa
Viditelnost: 7000 m

METAR: DRRN 170500Z 13002KT 7000 NSC 22/03 Q1012 NOSIG

Čas: 06:25 (05:25 UTC)

Předpověď počasí

Zpráva byla vytvořena před 6 hodinami a 25 minutami, v 23:00 UTC
Předpověď platná od 17 v 00 UTC do 18 v 06 UTC
Východní vítr 8 kt
Viditelnost: 5000 m
rozsáhlý prach
Dočasný
od 17 v 02 UTC do 17 v 07 UTC
Viditelnost: 2500 m
Dočasný
mezi 10 a 01 UTC
Viditelnost: 1500 m
zvířený prach

TAF: DRRN 162300Z 1700/1806 10008KT 5000 DU NSC TEMPO 1702/1707 2500 TEMPO 10018KT 1500 BLDU

Stav a předpovědi počasí z více než 4 000 letišť (zprávy METAR a TAF).

Červené a žluté tečky na mapě představují dostupné meteorologické stanice.

Když kurzor umístíte na tečku, zobrazí se název stanice.

Pak kliknutím zobrazíte stav a předpověď počasí.

Chcete-li změnit mapu, kliknutím na zelené tlačítko se znaménkem +mapu přiblížíte, kliknutím na zelené tlačítko se znaménkem – mapu oddálíte a kliknutím na zelené šipky přejdete na sousední mapy.


METAR-TAF: